CCA280 ENTC-EGLL
Flight info
| Callsign | CCA280 |
|---|---|
| Flight time | N/A |
| Altitude | 38000 |
| Route | AMIMO DCT GUBAV DCT VABRU DCT VEVOD DCT IPMOD/N0482F400 DCT MITSI DCT UPGAS DCT TIPAN DCT WECOW DCT BINBO DCT AKOKO N866 BUKUT P7 BARMI |
| Aircraft | A359/H-SDE2E3GHIJ3J4J5LM1ORWXY/LB1D1 |
Departure
| Time | 2026-04-28 00:27 |
|---|---|
| Airport | Tromsø Airport (ENTC) |
Arrival
| Time | N/A |
|---|---|
| Airport | London Heathrow Airport (EGLL) |
| Time | Latitude | Longitude | Altitude | Speed | Heading |
|---|---|---|---|---|---|
| 2026-04-28 00:17 | 69.68092 | 18.91083 | 41 ft | 0 kts | 241° |
| 2026-04-28 00:24 | 69.68092 | 18.91081 | 41 ft | 1 kts | 236° |
| 2026-04-28 00:24 | 69.68054 | 18.91067 | 42 ft | 13 kts | 188° |
| 2026-04-28 00:25 | 69.67914 | 18.91028 | 43 ft | 24 kts | 184° |
| 2026-04-28 00:25 | 69.67746 | 18.90992 | 44 ft | 24 kts | 183° |
| 2026-04-28 00:25 | 69.67591 | 18.91096 | 45 ft | 23 kts | 160° |
| 2026-04-28 00:25 | 69.67462 | 18.91117 | 46 ft | 17 kts | 200° |
| 2026-04-28 00:26 | 69.67349 | 18.91000 | 46 ft | 18 kts | 199° |
| 2026-04-28 00:26 | 69.67261 | 18.91010 | 45 ft | 6 kts | 128° |
| 2026-04-28 00:26 | 69.67268 | 18.91164 | 43 ft | 9 kts | 47° |
| 2026-04-28 00:26 | 69.67368 | 18.91248 | 46 ft | 30 kts | 13° |
| 2026-04-28 00:27 | 69.67889 | 18.91596 | 43 ft | 122 kts | 13° |
| 2026-04-28 00:27 | 69.68985 | 18.92313 | 140 ft | 190 kts | 14° |
| 2026-04-28 00:27 | 69.70253 | 18.93147 | 1268 ft | 184 kts | 11° |
| 2026-04-28 00:27 | 69.71531 | 18.93911 | 2140 ft | 193 kts | 9° |
| 2026-04-28 00:28 | 69.72917 | 18.94731 | 2557 ft | 215 kts | 9° |
| 2026-04-28 00:28 | 69.74459 | 18.94384 | 2948 ft | 233 kts | 339° |
| 2026-04-28 00:28 | 69.75766 | 18.91557 | 3670 ft | 240 kts | 308° |
| 2026-04-28 00:28 | 69.76402 | 18.87081 | 4481 ft | 248 kts | 279° |
| 2026-04-28 00:29 | 69.76357 | 18.83768 | 5026 ft | 254 kts | 260° |
| 2026-04-28 00:29 | 69.75581 | 18.79151 | 5873 ft | 260 kts | 234° |
| 2026-04-28 00:29 | 69.74341 | 18.75249 | 6692 ft | 265 kts | 227° |
| 2026-04-28 00:29 | 69.72578 | 18.70280 | 7760 ft | 270 kts | 227° |
| 2026-04-28 00:30 | 69.71657 | 18.67719 | 8295 ft | 273 kts | 227° |
| 2026-04-28 00:30 | 69.70289 | 18.63942 | 9082 ft | 278 kts | 227° |
| 2026-04-28 00:30 | 69.68881 | 18.60075 | 9910 ft | 282 kts | 227° |
| 2026-04-28 00:30 | 69.67446 | 18.56150 | 10624 ft | 289 kts | 227° |
| 2026-04-28 00:31 | 69.65946 | 18.52049 | 10953 ft | 307 kts | 227° |
| 2026-04-28 00:31 | 69.64349 | 18.47676 | 11286 ft | 327 kts | 227° |
| 2026-04-28 00:31 | 69.62658 | 18.43051 | 11706 ft | 343 kts | 227° |
| 2026-04-28 00:31 | 69.60906 | 18.38279 | 12340 ft | 351 kts | 226° |
| 2026-04-28 00:32 | 69.59095 | 18.33461 | 13007 ft | 359 kts | 224° |
| 2026-04-28 00:32 | 69.57120 | 18.28942 | 13661 ft | 368 kts | 219° |
| 2026-04-28 00:32 | 69.54980 | 18.24749 | 14309 ft | 376 kts | 216° |
| 2026-04-28 00:32 | 69.52737 | 18.20760 | 14887 ft | 384 kts | 214° |
| 2026-04-28 00:33 | 69.50407 | 18.16840 | 15456 ft | 391 kts | 213° |
| 2026-04-28 00:33 | 69.48017 | 18.12944 | 16029 ft | 398 kts | 213° |
| 2026-04-28 00:33 | 69.45581 | 18.09043 | 16596 ft | 405 kts | 213° |
| 2026-04-28 00:33 | 69.43101 | 18.05113 | 17179 ft | 411 kts | 213° |
| 2026-04-28 00:34 | 69.40574 | 18.01135 | 17746 ft | 417 kts | 213° |
| 2026-04-28 00:34 | 69.38044 | 17.97167 | 18333 ft | 424 kts | 213° |
| 2026-04-28 00:34 | 69.35469 | 17.92985 | 18855 ft | 430 kts | 214° |
| 2026-04-28 00:34 | 69.32904 | 17.88743 | 19416 ft | 434 kts | 214° |
| 2026-04-28 00:35 | 69.30255 | 17.84387 | 20048 ft | 437 kts | 214° |
| 2026-04-28 00:35 | 69.27608 | 17.80061 | 20592 ft | 442 kts | 215° |
| 2026-04-28 00:35 | 69.24928 | 17.75698 | 21133 ft | 447 kts | 215° |
| 2026-04-28 00:35 | 69.22217 | 17.71306 | 21690 ft | 452 kts | 215° |
| 2026-04-28 00:36 | 69.19479 | 17.66887 | 22272 ft | 456 kts | 215° |
| 2026-04-28 00:36 | 69.16713 | 17.62437 | 22837 ft | 460 kts | 215° |
| 2026-04-28 00:36 | 69.13917 | 17.57952 | 23401 ft | 464 kts | 215° |
| 2026-04-28 00:36 | 69.11129 | 17.53493 | 23929 ft | 468 kts | 215° |
| 2026-04-28 00:37 | 69.08309 | 17.48996 | 24402 ft | 471 kts | 215° |
| 2026-04-28 00:37 | 69.05436 | 17.44431 | 24883 ft | 474 kts | 215° |
| 2026-04-28 00:37 | 69.02563 | 17.39877 | 25348 ft | 478 kts | 215° |
| 2026-04-28 00:37 | 68.99659 | 17.35291 | 25812 ft | 481 kts | 215° |
| 2026-04-28 00:38 | 68.96764 | 17.30732 | 26286 ft | 484 kts | 215° |
| 2026-04-28 00:38 | 68.93831 | 17.26126 | 26753 ft | 486 kts | 215° |
| 2026-04-28 00:38 | 68.90836 | 17.21438 | 27238 ft | 490 kts | 215° |
| 2026-04-28 00:38 | 68.87886 | 17.16836 | 27718 ft | 493 kts | 215° |
| 2026-04-28 00:39 | 68.84892 | 17.12179 | 28171 ft | 496 kts | 215° |
| 2026-04-28 00:39 | 68.81868 | 17.07490 | 28587 ft | 499 kts | 215° |
| 2026-04-28 00:39 | 68.78842 | 17.02811 | 29051 ft | 502 kts | 215° |
| 2026-04-28 00:39 | 68.75774 | 16.98051 | 29470 ft | 505 kts | 216° |
| 2026-04-28 00:40 | 68.72552 | 16.94020 | 29791 ft | 518 kts | 200° |
| 2026-04-28 00:40 | 68.69005 | 16.92005 | 30208 ft | 525 kts | 192° |
| 2026-04-28 00:40 | 68.65381 | 16.90252 | 30497 ft | 530 kts | 194° |
| 2026-04-28 00:40 | 68.61745 | 16.88279 | 30803 ft | 532 kts | 195° |
| 2026-04-28 00:41 | 68.58145 | 16.86205 | 31265 ft | 531 kts | 195° |
| 2026-04-28 00:41 | 68.54531 | 16.84065 | 31687 ft | 531 kts | 195° |
| 2026-04-28 00:41 | 68.50923 | 16.81897 | 32057 ft | 532 kts | 195° |
| 2026-04-28 00:41 | 68.47274 | 16.79690 | 32412 ft | 533 kts | 195° |
| 2026-04-28 00:42 | 68.43652 | 16.77494 | 32735 ft | 535 kts | 195° |
| 2026-04-28 00:42 | 68.40024 | 16.75295 | 33071 ft | 536 kts | 195° |
| 2026-04-28 00:42 | 68.36374 | 16.73087 | 33410 ft | 537 kts | 195° |
| 2026-04-28 00:42 | 68.32764 | 16.70906 | 33620 ft | 539 kts | 195° |
| 2026-04-28 00:43 | 68.29062 | 16.68677 | 33888 ft | 541 kts | 194° |
| 2026-04-28 00:43 | 68.25427 | 16.66496 | 34191 ft | 542 kts | 194° |
| 2026-04-28 00:43 | 68.21755 | 16.64300 | 34528 ft | 541 kts | 194° |
| 2026-04-28 00:43 | 68.18065 | 16.62101 | 34849 ft | 539 kts | 194° |
| 2026-04-28 00:44 | 68.14406 | 16.59923 | 35145 ft | 539 kts | 194° |
| 2026-04-28 00:44 | 68.10731 | 16.57746 | 35400 ft | 539 kts | 194° |
| 2026-04-28 00:44 | 68.07060 | 16.55578 | 35647 ft | 538 kts | 194° |
| 2026-04-28 00:44 | 68.03448 | 16.53452 | 35914 ft | 538 kts | 194° |
| 2026-04-28 00:45 | 67.99757 | 16.51286 | 36100 ft | 539 kts | 194° |
| 2026-04-28 00:45 | 67.96090 | 16.49141 | 36277 ft | 539 kts | 194° |
| 2026-04-28 00:45 | 67.92421 | 16.47002 | 36548 ft | 538 kts | 194° |
| 2026-04-28 00:45 | 67.88800 | 16.44908 | 36811 ft | 538 kts | 193° |
| 2026-04-28 00:46 | 67.85232 | 16.42169 | 36989 ft | 534 kts | 205° |
| 2026-04-28 00:46 | 67.81856 | 16.38073 | 37216 ft | 531 kts | 210° |
| 2026-04-28 00:46 | 67.78586 | 16.33559 | 37437 ft | 530 kts | 211° |
| 2026-04-28 00:46 | 67.75340 | 16.28962 | 37659 ft | 529 kts | 211° |
| 2026-04-28 00:47 | 67.72077 | 16.24421 | 37863 ft | 529 kts | 210° |
| 2026-04-28 00:47 | 67.68809 | 16.20009 | 38034 ft | 530 kts | 210° |
| 2026-04-28 00:47 | 67.65486 | 16.15646 | 38250 ft | 530 kts | 209° |
| 2026-04-28 00:47 | 67.62218 | 16.11437 | 38407 ft | 531 kts | 208° |
| 2026-04-28 00:48 | 67.58889 | 16.07197 | 38439 ft | 533 kts | 208° |
| 2026-04-28 00:48 | 67.52191 | 15.98735 | 38438 ft | 533 kts | 208° |
| 2026-04-28 00:49 | 67.45511 | 15.90339 | 38436 ft | 533 kts | 208° |
| 2026-04-28 00:49 | 67.38867 | 15.82025 | 38438 ft | 533 kts | 209° |
| 2026-04-28 00:50 | 67.32140 | 15.73653 | 38418 ft | 534 kts | 208° |
| 2026-04-28 00:50 | 67.25414 | 15.65338 | 38443 ft | 534 kts | 208° |
| 2026-04-28 00:51 | 67.18742 | 15.57141 | 38442 ft | 534 kts | 208° |
| 2026-04-28 00:51 | 67.12014 | 15.48925 | 38440 ft | 534 kts | 208° |
| 2026-04-28 00:52 | 67.05304 | 15.40780 | 38443 ft | 534 kts | 208° |
| 2026-04-28 00:52 | 66.98579 | 15.32667 | 38443 ft | 534 kts | 208° |
| 2026-04-28 00:53 | 66.91893 | 15.24650 | 38443 ft | 534 kts | 208° |
| 2026-04-28 00:53 | 66.85160 | 15.16628 | 38443 ft | 534 kts | 208° |
| 2026-04-28 00:54 | 66.78418 | 15.08644 | 38451 ft | 534 kts | 208° |
| 2026-04-28 00:54 | 66.71669 | 15.00699 | 38432 ft | 535 kts | 208° |
| 2026-04-28 00:55 | 66.64898 | 14.92776 | 38447 ft | 535 kts | 208° |
| 2026-04-28 00:55 | 66.58123 | 14.84897 | 38443 ft | 535 kts | 208° |
| 2026-04-28 00:56 | 66.51406 | 14.77133 | 38409 ft | 535 kts | 208° |
| 2026-04-28 00:56 | 66.44624 | 14.69339 | 38432 ft | 537 kts | 208° |
| 2026-04-28 00:57 | 66.37804 | 14.61550 | 38431 ft | 537 kts | 208° |
| 2026-04-28 00:57 | 66.31035 | 14.53864 | 38430 ft | 538 kts | 208° |
| 2026-04-28 00:58 | 66.24208 | 14.46160 | 38432 ft | 538 kts | 207° |
| 2026-04-28 00:58 | 66.17378 | 14.38498 | 38433 ft | 537 kts | 207° |
| 2026-04-28 00:59 | 66.10606 | 14.30945 | 38436 ft | 537 kts | 207° |
| 2026-04-28 00:59 | 66.03753 | 14.23347 | 38436 ft | 537 kts | 207° |
| 2026-04-28 01:00 | 65.96969 | 14.15870 | 38436 ft | 537 kts | 207° |
| 2026-04-28 01:00 | 65.90147 | 14.08395 | 38434 ft | 537 kts | 207° |
| 2026-04-28 01:01 | 65.83318 | 14.00956 | 38437 ft | 538 kts | 207° |
| 2026-04-28 01:01 | 65.76477 | 13.93548 | 38442 ft | 538 kts | 207° |
| 2026-04-28 01:02 | 65.69601 | 13.86298 | 38441 ft | 538 kts | 206° |
| 2026-04-28 01:02 | 65.62739 | 13.79227 | 38439 ft | 538 kts | 206° |
| 2026-04-28 01:03 | 65.55846 | 13.72143 | 38440 ft | 538 kts | 206° |
| 2026-04-28 01:03 | 65.48917 | 13.65038 | 38435 ft | 538 kts | 206° |
| 2026-04-28 01:04 | 65.42057 | 13.58032 | 38436 ft | 538 kts | 206° |
| 2026-04-28 01:04 | 65.35179 | 13.51049 | 38435 ft | 538 kts | 206° |
| 2026-04-28 01:05 | 65.28277 | 13.44082 | 38436 ft | 538 kts | 206° |
| 2026-04-28 01:05 | 65.21343 | 13.37124 | 38436 ft | 539 kts | 206° |
| 2026-04-28 01:06 | 65.14471 | 13.30271 | 38439 ft | 539 kts | 206° |
| 2026-04-28 01:06 | 65.07563 | 13.23418 | 38432 ft | 538 kts | 206° |
| 2026-04-28 01:07 | 65.00616 | 13.16667 | 38429 ft | 538 kts | 205° |
| 2026-04-28 01:07 | 64.93639 | 13.10200 | 38435 ft | 539 kts | 205° |
| 2026-04-28 01:08 | 64.86662 | 13.03768 | 38441 ft | 539 kts | 205° |
| 2026-04-28 01:08 | 64.79714 | 12.97352 | 38444 ft | 539 kts | 205° |
| 2026-04-28 01:09 | 64.72732 | 12.90919 | 38424 ft | 539 kts | 205° |
| 2026-04-28 01:09 | 64.65738 | 12.84508 | 38447 ft | 540 kts | 205° |
| 2026-04-28 01:10 | 64.58734 | 12.78126 | 38446 ft | 540 kts | 205° |
| 2026-04-28 01:10 | 64.51724 | 12.71776 | 38451 ft | 540 kts | 204° |
| 2026-04-28 01:11 | 64.44749 | 12.65493 | 38447 ft | 540 kts | 204° |
| 2026-04-28 01:11 | 64.37731 | 12.59204 | 38448 ft | 541 kts | 204° |
| 2026-04-28 01:12 | 64.30708 | 12.52946 | 38450 ft | 540 kts | 204° |
| 2026-04-28 01:12 | 64.23689 | 12.46725 | 38452 ft | 540 kts | 204° |
| 2026-04-28 01:13 | 64.16659 | 12.40529 | 38450 ft | 540 kts | 204° |
| 2026-04-28 01:13 | 64.06134 | 12.31314 | 38455 ft | 540 kts | 204° |
| 2026-04-28 01:14 | 63.99096 | 12.25194 | 38458 ft | 541 kts | 204° |
| 2026-04-28 01:14 | 63.92069 | 12.19115 | 38462 ft | 541 kts | 204° |
| 2026-04-28 01:15 | 63.86228 | 12.14088 | 38464 ft | 541 kts | 204° |
| 2026-04-28 01:15 | 63.79171 | 12.08045 | 38472 ft | 541 kts | 204° |
| 2026-04-28 01:16 | 63.72131 | 12.02046 | 38475 ft | 541 kts | 204° |
| 2026-04-28 01:16 | 63.65069 | 11.96063 | 38474 ft | 541 kts | 203° |
| 2026-04-28 01:17 | 63.58071 | 11.90165 | 38474 ft | 541 kts | 203° |
| 2026-04-28 01:17 | 63.51019 | 11.84251 | 38476 ft | 541 kts | 203° |
| 2026-04-28 01:18 | 63.43970 | 11.78373 | 38478 ft | 541 kts | 203° |
| 2026-04-28 01:18 | 63.36896 | 11.72504 | 38489 ft | 541 kts | 203° |
| 2026-04-28 01:19 | 63.29853 | 11.66693 | 38486 ft | 541 kts | 203° |
| 2026-04-28 01:19 | 63.22778 | 11.60884 | 38483 ft | 541 kts | 203° |
| 2026-04-28 01:20 | 63.15752 | 11.55146 | 38488 ft | 540 kts | 203° |
| 2026-04-28 01:20 | 63.08691 | 11.49410 | 38489 ft | 540 kts | 203° |
| 2026-04-28 01:21 | 63.01618 | 11.43692 | 38496 ft | 541 kts | 203° |
| 2026-04-28 01:21 | 62.94563 | 11.38019 | 38489 ft | 541 kts | 203° |
| 2026-04-28 01:22 | 62.87522 | 11.32386 | 38472 ft | 541 kts | 203° |
| 2026-04-28 01:22 | 62.80515 | 11.26400 | 38453 ft | 539 kts | 208° |
| 2026-04-28 01:23 | 62.73787 | 11.19214 | 38494 ft | 537 kts | 211° |
| 2026-04-28 01:23 | 62.67111 | 11.11814 | 38489 ft | 538 kts | 210° |
| 2026-04-28 01:24 | 62.60419 | 11.04572 | 38499 ft | 539 kts | 210° |
| 2026-04-28 01:24 | 62.53655 | 10.97393 | 38500 ft | 539 kts | 210° |
| 2026-04-28 01:25 | 62.46910 | 10.90295 | 38505 ft | 539 kts | 209° |
| 2026-04-28 01:25 | 62.40153 | 10.83216 | 38501 ft | 539 kts | 209° |
| 2026-04-28 01:26 | 62.33448 | 10.76221 | 38520 ft | 540 kts | 209° |
| 2026-04-28 01:26 | 62.26668 | 10.69181 | 38512 ft | 540 kts | 209° |
| 2026-04-28 01:27 | 62.19921 | 10.62210 | 38519 ft | 540 kts | 209° |
| 2026-04-28 01:27 | 62.13129 | 10.55230 | 38517 ft | 540 kts | 209° |
| 2026-04-28 01:28 | 62.06346 | 10.48292 | 38519 ft | 540 kts | 209° |
| 2026-04-28 01:28 | 61.99599 | 10.41426 | 38527 ft | 540 kts | 209° |
| 2026-04-28 01:29 | 61.92804 | 10.34545 | 38529 ft | 540 kts | 209° |
| 2026-04-28 01:29 | 61.86033 | 10.27722 | 38525 ft | 540 kts | 209° |
| 2026-04-28 01:30 | 61.79225 | 10.20895 | 38528 ft | 540 kts | 208° |
| 2026-04-28 01:30 | 61.72435 | 10.14121 | 38532 ft | 539 kts | 208° |
| 2026-04-28 01:31 | 61.65643 | 10.07377 | 38519 ft | 539 kts | 208° |
| 2026-04-28 01:31 | 61.58853 | 10.00668 | 38524 ft | 540 kts | 208° |
| 2026-04-28 01:32 | 61.52088 | 9.94017 | 38524 ft | 540 kts | 208° |
| 2026-04-28 01:32 | 61.45271 | 9.87346 | 38493 ft | 539 kts | 208° |
| 2026-04-28 01:33 | 61.38454 | 9.80708 | 38519 ft | 540 kts | 208° |
| 2026-04-28 01:33 | 61.31680 | 9.74142 | 38515 ft | 540 kts | 208° |
| 2026-04-28 01:34 | 61.24862 | 9.67566 | 38513 ft | 540 kts | 208° |
| 2026-04-28 01:34 | 61.18012 | 9.60990 | 38509 ft | 540 kts | 208° |
| 2026-04-28 01:35 | 61.11226 | 9.54509 | 38500 ft | 540 kts | 208° |
| 2026-04-28 01:35 | 61.04354 | 9.47975 | 38499 ft | 540 kts | 208° |
| 2026-04-28 01:36 | 60.97559 | 9.41545 | 38498 ft | 540 kts | 208° |
| 2026-04-28 01:36 | 60.90729 | 9.35115 | 38495 ft | 539 kts | 208° |
| 2026-04-28 01:37 | 60.83903 | 9.28718 | 38492 ft | 540 kts | 208° |
| 2026-04-28 01:37 | 60.77063 | 9.22338 | 38489 ft | 540 kts | 207° |
| 2026-04-28 01:38 | 60.70201 | 9.15966 | 38483 ft | 540 kts | 207° |
| 2026-04-28 01:38 | 60.63413 | 9.09693 | 38488 ft | 538 kts | 207° |
| 2026-04-28 01:39 | 60.56589 | 9.03416 | 38486 ft | 538 kts | 207° |
| 2026-04-28 01:39 | 60.49770 | 8.97172 | 38486 ft | 538 kts | 207° |
| 2026-04-28 01:40 | 60.42913 | 8.90923 | 38491 ft | 538 kts | 207° |
| 2026-04-28 01:40 | 60.36068 | 8.84714 | 38497 ft | 538 kts | 207° |
| 2026-04-28 01:41 | 60.29285 | 8.78590 | 38500 ft | 538 kts | 207° |
| 2026-04-28 01:41 | 60.22450 | 8.72447 | 38501 ft | 538 kts | 207° |
| 2026-04-28 01:42 | 60.15595 | 8.66313 | 38492 ft | 538 kts | 206° |
| 2026-04-28 01:42 | 60.08778 | 8.60241 | 38500 ft | 537 kts | 206° |
| 2026-04-28 01:43 | 60.01962 | 8.54198 | 38503 ft | 537 kts | 206° |
| 2026-04-28 01:43 | 59.95116 | 8.48156 | 38504 ft | 537 kts | 206° |
| 2026-04-28 01:44 | 59.88298 | 8.42165 | 38498 ft | 537 kts | 206° |
| 2026-04-28 01:44 | 59.81448 | 8.36174 | 38503 ft | 536 kts | 206° |
| 2026-04-28 01:45 | 59.74632 | 8.30239 | 38498 ft | 535 kts | 206° |
| 2026-04-28 01:45 | 59.67715 | 8.24674 | 38495 ft | 537 kts | 202° |
| 2026-04-28 01:46 | 59.60712 | 8.19805 | 38508 ft | 537 kts | 201° |
| 2026-04-28 01:46 | 59.53636 | 8.14878 | 38507 ft | 535 kts | 201° |
| 2026-04-28 01:47 | 59.46666 | 8.09915 | 38506 ft | 535 kts | 202° |
| 2026-04-28 01:47 | 59.39674 | 8.04904 | 38500 ft | 534 kts | 202° |
| 2026-04-28 01:48 | 59.32680 | 7.99909 | 38495 ft | 534 kts | 202° |
| 2026-04-28 01:48 | 59.25744 | 7.94984 | 38500 ft | 533 kts | 201° |
| 2026-04-28 01:49 | 59.18753 | 7.90044 | 38507 ft | 533 kts | 201° |
| 2026-04-28 01:49 | 59.11754 | 7.85120 | 38501 ft | 533 kts | 201° |
| 2026-04-28 01:50 | 59.04774 | 7.80231 | 38503 ft | 533 kts | 201° |
| 2026-04-28 01:50 | 58.97792 | 7.75361 | 38502 ft | 533 kts | 201° |
| 2026-04-28 01:51 | 58.90803 | 7.70507 | 38498 ft | 533 kts | 201° |
| 2026-04-28 01:51 | 58.83858 | 7.65705 | 38493 ft | 533 kts | 201° |
| 2026-04-28 01:52 | 58.76872 | 7.60895 | 38485 ft | 533 kts | 201° |
| 2026-04-28 01:52 | 58.69880 | 7.56101 | 38487 ft | 533 kts | 201° |
| 2026-04-28 01:53 | 58.62912 | 7.51344 | 38495 ft | 533 kts | 201° |
| 2026-04-28 01:53 | 58.55915 | 7.46588 | 38480 ft | 533 kts | 201° |
| 2026-04-28 01:54 | 58.48921 | 7.41854 | 38485 ft | 533 kts | 201° |
| 2026-04-28 01:54 | 58.41879 | 7.37107 | 38478 ft | 533 kts | 201° |
| 2026-04-28 01:55 | 58.34933 | 7.32445 | 38470 ft | 533 kts | 201° |
| 2026-04-28 01:55 | 58.27922 | 7.27759 | 38470 ft | 533 kts | 201° |
| 2026-04-28 01:56 | 58.20921 | 7.23099 | 38465 ft | 532 kts | 200° |
| 2026-04-28 01:56 | 58.13923 | 7.18461 | 38460 ft | 532 kts | 200° |
| 2026-04-28 01:57 | 58.06943 | 7.13854 | 38458 ft | 532 kts | 200° |
| 2026-04-28 01:57 | 57.99935 | 7.09247 | 38450 ft | 532 kts | 200° |
| 2026-04-28 01:58 | 57.92988 | 7.04699 | 38450 ft | 531 kts | 200° |
| 2026-04-28 01:58 | 57.86012 | 7.00151 | 38451 ft | 531 kts | 200° |
| 2026-04-28 01:59 | 57.79021 | 6.95612 | 38452 ft | 531 kts | 200° |
| 2026-04-28 01:59 | 57.72020 | 6.91085 | 38453 ft | 531 kts | 200° |
| 2026-04-28 02:00 | 57.65045 | 6.86593 | 38452 ft | 531 kts | 199° |
| 2026-04-28 02:00 | 57.58041 | 6.82102 | 38455 ft | 530 kts | 199° |
| 2026-04-28 02:01 | 57.51107 | 6.77673 | 38451 ft | 530 kts | 199° |
| 2026-04-28 02:01 | 57.44139 | 6.73240 | 38452 ft | 529 kts | 199° |
| 2026-04-28 02:02 | 57.37165 | 6.68821 | 38459 ft | 529 kts | 199° |
| 2026-04-28 02:02 | 57.30186 | 6.64417 | 38454 ft | 529 kts | 199° |
| 2026-04-28 02:03 | 57.23248 | 6.60057 | 38450 ft | 529 kts | 199° |
| 2026-04-28 02:03 | 57.17411 | 6.56401 | 38456 ft | 528 kts | 199° |
| 2026-04-28 02:04 | 57.10503 | 6.52091 | 38455 ft | 526 kts | 199° |
| 2026-04-28 02:04 | 57.03554 | 6.47771 | 38451 ft | 528 kts | 199° |
| 2026-04-28 02:05 | 56.96701 | 6.43027 | 38452 ft | 528 kts | 205° |
| 2026-04-28 02:05 | 56.90028 | 6.37193 | 38454 ft | 526 kts | 207° |
| 2026-04-28 02:06 | 56.83482 | 6.31313 | 38448 ft | 525 kts | 206° |
| 2026-04-28 02:06 | 56.76938 | 6.25582 | 38445 ft | 525 kts | 206° |
| 2026-04-28 02:07 | 56.70328 | 6.19896 | 38445 ft | 525 kts | 205° |
| 2026-04-28 02:07 | 56.63717 | 6.14249 | 38439 ft | 524 kts | 205° |
| 2026-04-28 02:08 | 56.57112 | 6.08625 | 38440 ft | 523 kts | 205° |
| 2026-04-28 02:08 | 56.50552 | 6.03057 | 38442 ft | 523 kts | 205° |
| 2026-04-28 02:09 | 56.43958 | 5.97481 | 38434 ft | 523 kts | 205° |
| 2026-04-28 02:09 | 56.37383 | 5.91942 | 38432 ft | 521 kts | 205° |
| 2026-04-28 02:10 | 56.30772 | 5.86393 | 38433 ft | 520 kts | 205° |
| 2026-04-28 02:10 | 56.24248 | 5.80940 | 38428 ft | 520 kts | 205° |
| 2026-04-28 02:11 | 56.17674 | 5.75464 | 38429 ft | 520 kts | 205° |
| 2026-04-28 02:11 | 56.11101 | 5.70011 | 38426 ft | 518 kts | 205° |
| 2026-04-28 02:12 | 56.04535 | 5.64583 | 38416 ft | 519 kts | 205° |
| 2026-04-28 02:12 | 55.98011 | 5.59211 | 38421 ft | 520 kts | 205° |
| 2026-04-28 02:13 | 55.91430 | 5.53812 | 38425 ft | 521 kts | 205° |
| 2026-04-28 02:13 | 55.84803 | 5.48396 | 38418 ft | 521 kts | 205° |
| 2026-04-28 02:14 | 55.78221 | 5.43036 | 38416 ft | 521 kts | 204° |
| 2026-04-28 02:14 | 55.71620 | 5.37682 | 38408 ft | 521 kts | 204° |
| 2026-04-28 02:15 | 55.61731 | 5.29697 | 38414 ft | 519 kts | 204° |
| 2026-04-28 02:16 | 55.55191 | 5.24441 | 38414 ft | 518 kts | 204° |
| 2026-04-28 02:16 | 55.48621 | 5.19180 | 38408 ft | 518 kts | 204° |
| 2026-04-28 02:17 | 55.42060 | 5.13945 | 38410 ft | 518 kts | 204° |
| 2026-04-28 02:17 | 55.35538 | 5.08761 | 38414 ft | 517 kts | 204° |
| 2026-04-28 02:18 | 55.28975 | 5.03562 | 38403 ft | 517 kts | 204° |
| 2026-04-28 02:18 | 55.22417 | 4.98386 | 38406 ft | 517 kts | 204° |
| 2026-04-28 02:19 | 55.15820 | 4.93359 | 38339 ft | 513 kts | 199° |
| 2026-04-28 02:19 | 55.12429 | 4.91633 | 37547 ft | 500 kts | 190° |
| 2026-04-28 02:19 | 55.09067 | 4.90847 | 36206 ft | 500 kts | 180° |
| 2026-04-28 02:19 | 55.05553 | 4.91121 | 34751 ft | 500 kts | 168° |
| 2026-04-28 02:20 | 55.02191 | 4.92491 | 33354 ft | 494 kts | 157° |
| 2026-04-28 02:20 | 54.98962 | 4.94523 | 32404 ft | 493 kts | 154° |
| 2026-04-28 02:20 | 54.95768 | 4.96634 | 31888 ft | 488 kts | 154° |
| 2026-04-28 02:21 | 54.89436 | 5.00772 | 31844 ft | 493 kts | 155° |
| 2026-04-28 02:21 | 54.82881 | 5.05003 | 31827 ft | 511 kts | 155° |
| 2026-04-28 02:22 | 54.76135 | 5.09314 | 31821 ft | 519 kts | 155° |
| 2026-04-28 02:22 | 54.69395 | 5.13598 | 31820 ft | 519 kts | 156° |
| 2026-04-28 02:23 | 54.62612 | 5.17897 | 31825 ft | 518 kts | 156° |
| 2026-04-28 02:23 | 54.55843 | 5.22171 | 31815 ft | 517 kts | 156° |
| 2026-04-28 02:24 | 54.49078 | 5.26430 | 31806 ft | 517 kts | 156° |
| 2026-04-28 02:24 | 54.42320 | 5.30668 | 31804 ft | 517 kts | 156° |
| 2026-04-28 02:25 | 54.35549 | 5.34902 | 31806 ft | 516 kts | 158° |
| 2026-04-28 02:25 | 54.28913 | 5.39029 | 31267 ft | 489 kts | 158° |
| 2026-04-28 02:25 | 54.25784 | 5.40971 | 30055 ft | 482 kts | 158° |
| 2026-04-28 02:26 | 54.22637 | 5.42925 | 28770 ft | 475 kts | 158° |
| 2026-04-28 02:26 | 54.19562 | 5.44829 | 27610 ft | 466 kts | 158° |
| 2026-04-28 02:26 | 54.16542 | 5.46697 | 26514 ft | 457 kts | 158° |
| 2026-04-28 02:26 | 54.13575 | 5.48529 | 25425 ft | 449 kts | 158° |
| 2026-04-28 02:27 | 54.10652 | 5.50333 | 24424 ft | 441 kts | 159° |
| 2026-04-28 02:27 | 54.07790 | 5.52094 | 23097 ft | 436 kts | 158° |
| 2026-04-28 02:27 | 54.04917 | 5.53861 | 21256 ft | 441 kts | 158° |
| 2026-04-28 02:27 | 54.02025 | 5.55637 | 19685 ft | 442 kts | 158° |
| 2026-04-28 02:28 | 53.99183 | 5.57377 | 18303 ft | 437 kts | 158° |
| 2026-04-28 02:28 | 53.96340 | 5.59114 | 16944 ft | 430 kts | 158° |
| 2026-04-28 02:28 | 53.93557 | 5.60813 | 15748 ft | 420 kts | 158° |
| 2026-04-28 02:28 | 53.90837 | 5.62473 | 14536 ft | 411 kts | 158° |
| 2026-04-28 02:29 | 53.88166 | 5.64100 | 13248 ft | 403 kts | 158° |
| 2026-04-28 02:29 | 53.85549 | 5.65692 | 11998 ft | 395 kts | 157° |
| 2026-04-28 02:29 | 53.82989 | 5.67247 | 10874 ft | 384 kts | 157° |
| 2026-04-28 02:29 | 53.80556 | 5.68720 | 10530 ft | 355 kts | 157° |
| 2026-04-28 02:30 | 53.78354 | 5.70047 | 10292 ft | 327 kts | 157° |
| 2026-04-28 02:30 | 53.76293 | 5.71291 | 10021 ft | 303 kts | 157° |
| 2026-04-28 02:30 | 53.74377 | 5.72449 | 9732 ft | 282 kts | 156° |
| 2026-04-28 02:30 | 53.72560 | 5.73551 | 9490 ft | 274 kts | 156° |
| 2026-04-28 02:31 | 53.70771 | 5.74639 | 9319 ft | 277 kts | 156° |
| 2026-04-28 02:31 | 53.68937 | 5.75755 | 9149 ft | 280 kts | 157° |
| 2026-04-28 02:31 | 53.67108 | 5.76858 | 8849 ft | 278 kts | 156° |
| 2026-04-28 02:31 | 53.65299 | 5.77953 | 8386 ft | 279 kts | 158° |
| 2026-04-28 02:32 | 53.63471 | 5.79053 | 7994 ft | 275 kts | 158° |
| 2026-04-28 02:32 | 53.61669 | 5.80129 | 7681 ft | 273 kts | 156° |
| 2026-04-28 02:32 | 53.59887 | 5.81197 | 7349 ft | 270 kts | 157° |
| 2026-04-28 02:32 | 53.58147 | 5.82248 | 7015 ft | 268 kts | 158° |
| 2026-04-28 02:33 | 53.56396 | 5.83303 | 6689 ft | 268 kts | 159° |
| 2026-04-28 02:33 | 53.54644 | 5.84347 | 6360 ft | 266 kts | 158° |
| 2026-04-28 02:33 | 53.52898 | 5.85387 | 6039 ft | 266 kts | 158° |
| 2026-04-28 02:33 | 53.51158 | 5.86433 | 5710 ft | 266 kts | 158° |
| 2026-04-28 02:34 | 53.49415 | 5.87478 | 5394 ft | 266 kts | 158° |
| 2026-04-28 02:34 | 53.47668 | 5.88516 | 5058 ft | 266 kts | 157° |
| 2026-04-28 02:34 | 53.45924 | 5.89555 | 4734 ft | 265 kts | 157° |
| 2026-04-28 02:34 | 53.44192 | 5.90587 | 4423 ft | 262 kts | 157° |
| 2026-04-28 02:35 | 53.42507 | 5.91587 | 4288 ft | 251 kts | 157° |
| 2026-04-28 02:35 | 53.40899 | 5.92539 | 4130 ft | 240 kts | 157° |
| 2026-04-28 02:35 | 53.39353 | 5.93455 | 3988 ft | 230 kts | 156° |
| 2026-04-28 02:35 | 53.37880 | 5.94328 | 3875 ft | 219 kts | 156° |
| 2026-04-28 02:36 | 53.36475 | 5.95143 | 3671 ft | 208 kts | 158° |
| 2026-04-28 02:36 | 53.35098 | 5.95670 | 3490 ft | 196 kts | 167° |
| 2026-04-28 02:36 | 53.33775 | 5.95731 | 3283 ft | 186 kts | 179° |
| 2026-04-28 02:36 | 53.32515 | 5.95356 | 2990 ft | 183 kts | 191° |
| 2026-04-28 02:37 | 53.31359 | 5.94581 | 2853 ft | 175 kts | 202° |
| 2026-04-28 02:37 | 53.30328 | 5.93479 | 2541 ft | 179 kts | 213° |
| 2026-04-28 02:37 | 53.29426 | 5.92082 | 2254 ft | 179 kts | 229° |
| 2026-04-28 02:37 | 53.28758 | 5.90372 | 2001 ft | 172 kts | 234° |
| 2026-04-28 02:38 | 53.28093 | 5.88769 | 1754 ft | 164 kts | 231° |
| 2026-04-28 02:38 | 53.27462 | 5.87247 | 1531 ft | 156 kts | 232° |
| 2026-04-28 02:38 | 53.26847 | 5.85750 | 1326 ft | 156 kts | 232° |
| 2026-04-28 02:38 | 53.26228 | 5.84248 | 1101 ft | 156 kts | 232° |
| 2026-04-28 02:39 | 53.25611 | 5.82751 | 891 ft | 156 kts | 233° |
| 2026-04-28 02:39 | 53.25002 | 5.81272 | 682 ft | 156 kts | 234° |
| 2026-04-28 02:39 | 53.24393 | 5.79791 | 477 ft | 154 kts | 236° |
| 2026-04-28 02:39 | 53.23791 | 5.78327 | 280 ft | 152 kts | 237° |
| 2026-04-28 02:40 | 53.23195 | 5.76879 | 94 ft | 150 kts | 236° |
| 2026-04-28 02:40 | 53.22635 | 5.75512 | 20 ft | 124 kts | 235° |
| 2026-04-28 02:40 | 53.22312 | 5.74738 | 15 ft | 38 kts | 235° |
| 2026-04-28 02:40 | 53.22220 | 5.74518 | 18 ft | 22 kts | 235° |
| 2026-04-28 02:41 | 53.22131 | 5.74304 | 19 ft | 23 kts | 235° |
| 2026-04-28 02:41 | 53.22039 | 5.74080 | 17 ft | 24 kts | 235° |
| 2026-04-28 02:41 | 53.21954 | 5.73875 | 16 ft | 0 kts | 235° |
| 2026-04-28 02:42 | 53.21954 | 5.73874 | 16 ft | 0 kts | 235° |
| 2026-04-28 02:42 | 53.21945 | 5.73822 | 15 ft | 2 kts | 296° |
| 2026-04-28 02:42 | 53.21951 | 5.73814 | 15 ft | 0 kts | 322° |